Time;durP1;ratioP1;P1;durP2;ratioP2;P2;SDS_P1;SDS_P2;PMS_P1;PMS_P2;Temp;Humidity;BMP_temperature;BMP_pressure;BME280_temperature;BME280_humidity;BME280_pressure;Samples;Min_cycle;Max_cycle;Signal;HPM_P1;HPM_P2
2022/04/15 00:00:00;;;;;;;32.40;16.67;;;8.90;99.90;;;;;;5000362;28;20302;-82
2022/04/15 00:02:27;;;;;;;32.00;16.07;;;8.80;99.90;;;;;;4999909;28;20228;-82
2022/04/15 00:04:57;;;;;;;28.40;16.97;;;8.80;99.90;;;;;;4999620;28;20236;-82
2022/04/15 00:07:25;;;;;;;33.67;17.53;;;8.40;99.90;;;;;;5007057;28;20337;-83
2022/04/15 00:09:51;;;;;;;35.40;16.20;;;8.80;99.90;;;;;;5008177;28;20651;-82
2022/04/15 00:12:27;;;;;;;35.50;16.57;;;8.70;99.90;;;;;;5002078;28;20236;-83
2022/04/15 00:14:55;;;;;;;32.53;16.40;;;8.70;99.90;;;;;;5002254;28;21141;-83
2022/04/15 00:17:21;;;;;;;39.17;17.27;;;8.80;99.90;;;;;;5006793;28;20305;-81
2022/04/15 00:19:48;;;;;;;31.30;16.43;;;8.50;99.90;;;;;;5002907;28;20346;-83
2022/04/15 00:22:15;;;;;;;31.23;16.23;;;8.60;99.90;;;;;;5004024;28;20221;-84
2022/04/15 00:24:42;;;;;;;34.27;16.87;;;8.60;99.90;;;;;;4998907;28;20220;-82
2022/04/15 00:27:09;;;;;;;35.13;16.80;;;8.50;99.90;;;;;;5001977;28;20212;-82
2022/04/15 00:29:37;;;;;;;37.63;18.27;;;8.50;99.90;;;;;;5001550;28;20203;-83
2022/04/15 00:32:04;;;;;;;31.13;16.73;;;8.50;99.90;;;;;;5008216;28;20220;-81
2022/04/15 00:34:31;;;;;;;35.93;17.67;;;8.50;99.90;;;;;;5000732;28;20205;-83
2022/04/15 00:36:58;;;;;;;38.50;18.80;;;8.60;99.90;;;;;;5004350;28;20252;-82
2022/04/15 00:39:25;;;;;;;43.50;19.70;;;8.60;99.90;;;;;;5002316;28;20732;-81
2022/04/15 00:41:52;;;;;;;33.53;16.73;;;9.00;99.90;;;;;;5006077;28;20240;-83
2022/04/15 00:44:19;;;;;;;28.27;16.87;;;8.80;99.90;;;;;;5000348;28;20281;-82
2022/04/15 00:46:46;;;;;;;35.70;16.23;;;8.70;99.90;;;;;;5010082;28;20212;-82
2022/04/15 00:49:13;;;;;;;33.73;16.53;;;8.80;99.90;;;;;;5004606;28;20730;-83
2022/04/15 00:51:42;;;;;;;32.17;16.13;;;8.80;99.90;;;;;;5002862;28;20654;-84
2022/04/15 00:54:11;;;;;;;35.83;16.00;;;8.80;99.90;;;;;;5012134;28;20217;-82
2022/04/15 00:56:40;;;;;;;30.10;16.00;;;8.80;99.90;;;;;;5003580;28;20205;-81
2022/04/15 00:59:09;;;;;;;32.00;14.97;;;8.80;99.90;;;;;;5002516;28;20213;-81
2022/04/15 01:01:39;;;;;;;29.90;14.73;;;9.40;99.90;;;;;;5006664;28;20264;-82
2022/04/15 01:04:07;;;;;;;29.33;14.47;;;8.70;99.90;;;;;;5018681;28;20281;-81
2022/04/15 01:06:36;;;;;;;26.57;14.33;;;8.80;99.90;;;;;;5002204;28;20218;-82
2022/04/15 01:09:05;;;;;;;32.03;14.27;;;8.80;99.90;;;;;;5003565;28;20305;-80
2022/04/15 01:11:34;;;;;;;27.53;14.67;;;8.90;99.90;;;;;;5000356;28;20580;-83
2022/04/15 01:14:02;;;;;;;32.73;14.93;;;8.90;99.90;;;;;;4990908;28;20213;-81
2022/04/15 01:16:32;;;;;;;28.70;14.63;;;9.00;99.90;;;;;;5002483;28;20231;-83
2022/04/15 01:18:58;;;;;;;30.73;14.90;;;9.00;99.90;;;;;;5007292;28;20238;-81
2022/04/15 01:21:29;;;;;;;30.83;14.17;;;9.10;99.90;;;;;;4998514;28;20217;-82
2022/04/15 01:23:57;;;;;;;34.50;15.53;;;9.10;99.90;;;;;;4999224;28;20231;-82
2022/04/15 01:26:24;;;;;;;36.73;15.53;;;9.10;99.90;;;;;;5001343;28;20209;-84
2022/04/15 01:28:52;;;;;;;29.30;14.63;;;9.10;99.90;;;;;;5000494;28;20276;-82
2022/04/15 01:31:18;;;;;;;28.03;15.27;;;9.20;99.90;;;;;;5007031;28;20604;-84
2022/04/15 01:33:45;;;;;;;32.70;15.50;;;9.10;99.90;;;;;;5003320;28;20209;-82
2022/04/15 01:36:14;;;;;;;32.03;16.17;;;9.10;99.90;;;;;;5005723;28;20212;-82
2022/04/15 01:38:41;;;;;;;31.53;15.20;;;9.10;99.90;;;;;;4998602;28;20299;-82
2022/04/15 01:41:08;;;;;;;30.53;14.97;;;9.30;99.90;;;;;;5004350;28;20285;-83
2022/04/15 01:43:35;;;;;;;31.87;15.83;;;9.10;99.90;;;;;;4999557;28;20218;-82
2022/04/15 01:46:02;;;;;;;34.23;16.37;;;9.10;99.90;;;;;;5024587;28;20216;-83
2022/04/15 01:48:29;;;;;;;34.83;15.83;;;9.50;99.90;;;;;;5000856;28;20642;-82
2022/04/15 01:50:57;;;;;;;27.23;14.20;;;9.10;99.90;;;;;;5016800;28;20199;-84
2022/04/15 01:53:24;;;;;;;27.43;14.30;;;9.20;99.90;;;;;;5000843;28;20786;-83
2022/04/15 01:55:52;;;;;;;30.80;14.83;;;9.20;99.90;;;;;;5002981;28;20252;-83
2022/04/15 01:58:20;;;;;;;32.70;15.10;;;9.20;99.90;;;;;;5000481;28;20230;-82
2022/04/15 02:00:47;;;;;;;25.57;14.63;;;9.20;99.90;;;;;;5000838;28;20750;-82
2022/04/15 02:03:14;;;;;;;27.13;13.40;;;9.20;99.90;;;;;;5005484;28;20934;-82
2022/04/15 02:05:41;;;;;;;22.57;12.10;;;9.30;99.90;;;;;;4997363;28;20246;-82
2022/04/15 02:08:08;;;;;;;24.17;11.90;;;9.20;99.90;;;;;;5000206;28;20330;-82
2022/04/15 02:10:35;;;;;;;22.93;11.47;;;9.30;99.90;;;;;;5010991;28;20297;-82
2022/04/15 02:13:02;;;;;;;25.77;11.10;;;9.30;99.90;;;;;;5000221;28;20235;-83
2022/04/15 02:15:29;;;;;;;25.77;12.70;;;9.20;99.90;;;;;;4999728;28;20217;-83
2022/04/15 02:17:57;;;;;;;19.67;10.97;;;9.10;99.90;;;;;;5008030;28;20203;-82
2022/04/15 02:20:24;;;;;;;21.50;11.13;;;8.90;99.90;;;;;;4998981;28;20202;-81
2022/04/15 02:22:54;;;;;;;22.03;11.87;;;9.10;99.90;;;;;;5005369;28;20311;-83
2022/04/15 02:25:21;;;;;;;18.47;10.83;;;9.20;99.90;;;;;;5002532;28;20298;-83
2022/04/15 02:27:47;;;;;;;22.93;11.43;;;9.20;99.90;;;;;;5005615;28;20271;-85
2022/04/15 02:30:14;;;;;;;21.30;11.20;;;9.00;99.90;;;;;;5010057;28;20252;-84
2022/04/15 02:32:41;;;;;;;22.73;10.63;;;8.80;99.90;;;;;;5000051;28;20723;-84
2022/04/15 02:35:09;;;;;;;23.00;11.07;;;9.10;99.90;;;;;;5006395;28;20275;-82
2022/04/15 02:37:36;;;;;;;18.17;10.17;;;9.00;99.90;;;;;;5010105;28;20221;-82
2022/04/15 02:40:04;;;;;;;23.60;11.63;;;9.00;99.90;;;;;;4995181;28;20216;-82
2022/04/15 02:42:31;;;;;;;21.57;11.00;;;8.90;99.90;;;;;;5000730;28;20264;-85
2022/04/15 02:44:58;;;;;;;25.27;11.37;;;8.90;99.90;;;;;;5000130;28;20213;-82
2022/04/15 02:47:25;;;;;;;23.63;10.47;;;8.80;99.90;;;;;;5003300;28;20208;-83
2022/04/15 02:49:51;;;;;;;20.07;11.10;;;8.80;99.90;;;;;;4997528;28;20609;-82
2022/04/15 02:52:18;;;;;;;21.97;11.10;;;8.80;99.90;;;;;;4993676;28;20243;-82
2022/04/15 02:54:45;;;;;;;19.00;11.20;;;8.80;99.90;;;;;;5006402;28;20298;-83
2022/04/15 02:57:12;;;;;;;27.50;11.47;;;8.70;99.90;;;;;;5007461;28;20213;-84
2022/04/15 02:59:39;;;;;;;23.43;11.77;;;8.70;99.90;;;;;;4999216;28;20237;-83
2022/04/15 03:02:06;;;;;;;22.90;11.33;;;8.60;99.90;;;;;;4995996;28;20319;-83
2022/04/15 03:04:33;;;;;;;21.23;11.90;;;8.60;99.90;;;;;;4996783;28;20214;-83
2022/04/15 03:07:00;;;;;;;19.33;10.93;;;8.60;99.90;;;;;;4997534;28;20969;-84
2022/04/15 03:09:27;;;;;;;21.90;11.27;;;8.50;99.90;;;;;;5002658;28;20262;-82
2022/04/15 03:11:54;;;;;;;21.30;11.53;;;8.40;99.90;;;;;;4999856;28;20533;-83
2022/04/15 03:14:21;;;;;;;23.27;11.73;;;8.40;99.90;;;;;;5000196;28;20300;-82
2022/04/15 03:16:49;;;;;;;23.83;12.10;;;8.30;99.90;;;;;;4996213;28;20246;-82
2022/04/15 03:19:15;;;;;;;20.13;11.43;;;8.30;99.90;;;;;;4995755;28;20314;-83
2022/04/15 03:21:42;;;;;;;22.93;11.47;;;8.20;99.90;;;;;;5015313;28;20230;-83
2022/04/15 03:24:09;;;;;;;24.73;12.00;;;8.20;99.90;;;;;;4998166;28;20324;-82
2022/04/15 03:26:37;;;;;;;28.17;12.10;;;8.10;99.90;;;;;;5000514;28;20701;-83
2022/04/15 03:29:04;;;;;;;26.73;12.70;;;8.10;99.90;;;;;;5000299;28;20217;-82
2022/04/15 03:31:31;;;;;;;26.70;12.00;;;8.00;99.90;;;;;;5000914;28;20237;-81
2022/04/15 03:33:58;;;;;;;21.40;12.80;;;8.00;99.90;;;;;;4999393;28;20214;-82
2022/04/15 03:36:25;;;;;;;23.30;11.77;;;7.90;99.90;;;;;;4999823;28;20212;-81
2022/04/15 03:38:51;;;;;;;22.70;11.80;;;7.90;99.90;;;;;;4998513;28;20213;-81
2022/04/15 03:41:19;;;;;;;27.83;12.77;;;7.80;99.90;;;;;;4992577;28;20825;-83
2022/04/15 03:43:46;;;;;;;24.97;12.00;;;7.80;99.90;;;;;;4998083;28;20212;-83
2022/04/15 03:46:13;;;;;;;24.80;12.97;;;7.70;99.90;;;;;;4997954;28;20309;-83
2022/04/15 03:48:39;;;;;;;24.63;13.27;;;7.70;99.90;;;;;;4997140;28;20220;-81
2022/04/15 03:51:08;;;;;;;30.87;14.10;;;7.60;99.90;;;;;;4998819;28;20230;-82
2022/04/15 03:53:36;;;;;;;23.93;13.00;;;7.60;99.90;;;;;;4994049;28;20238;-84
2022/04/15 03:56:04;;;;;;;27.07;12.60;;;7.60;99.90;;;;;;4998901;28;20635;-82
2022/04/15 03:58:30;;;;;;;27.13;12.37;;;7.50;99.90;;;;;;4997078;28;20205;-83
2022/04/15 04:00:59;;;;;;;22.10;12.57;;;7.50;99.90;;;;;;4991009;28;20293;-84
2022/04/15 04:03:29;;;;;;;31.33;12.77;;;7.50;99.90;;;;;;5004657;28;20251;-83
2022/04/15 04:05:56;;;;;;;23.57;12.27;;;7.50;99.90;;;;;;4998137;28;20325;-83
2022/04/15 04:08:23;;;;;;;21.70;12.50;;;7.70;99.90;;;;;;4995817;28;20241;-85
2022/04/15 04:10:50;;;;;;;25.63;12.70;;;7.50;99.90;;;;;;4997603;28;20709;-81
2022/04/15 04:13:18;;;;;;;25.33;12.03;;;7.40;99.90;;;;;;5002309;28;20390;-83
2022/04/15 04:15:45;;;;;;;26.10;13.20;;;7.40;99.90;;;;;;4993376;28;20209;-82
2022/04/15 04:18:14;;;;;;;27.87;12.77;;;7.40;99.90;;;;;;4996914;28;20773;-81
2022/04/15 04:20:41;;;;;;;25.40;12.53;;;7.40;99.90;;;;;;4999141;28;20240;-81
2022/04/15 04:23:08;;;;;;;29.60;13.37;;;7.30;99.90;;;;;;5004438;28;20232;-81
2022/04/15 04:25:35;;;;;;;25.70;13.67;;;7.30;99.90;;;;;;4999999;28;20238;-82
2022/04/15 04:28:03;;;;;;;26.53;13.43;;;7.30;99.90;;;;;;5008599;28;20322;-82
2022/04/15 04:30:30;;;;;;;31.13;13.57;;;7.30;99.90;;;;;;5001521;28;20231;-83
2022/04/15 04:32:59;;;;;;;25.10;12.83;;;7.20;99.90;;;;;;5001030;28;20234;-82
2022/04/15 04:35:26;;;;;;;28.63;13.30;;;7.20;99.90;;;;;;5000388;28;20222;-84
2022/04/15 04:37:53;;;;;;;30.57;12.87;;;7.20;99.90;;;;;;5000176;28;20710;-82
2022/04/15 04:40:20;;;;;;;26.73;13.20;;;7.20;99.90;;;;;;5003359;28;20294;-83
2022/04/15 04:42:51;;;;;;;25.17;12.47;;;7.20;99.90;;;;;;4999193;28;20268;-84
2022/04/15 04:45:19;;;;;;;28.07;13.00;;;7.10;99.90;;;;;;4998457;28;20275;-84
2022/04/15 04:47:46;;;;;;;29.63;13.47;;;7.10;99.90;;;;;;5003946;28;20287;-84
2022/04/15 04:50:13;;;;;;;25.43;12.83;;;7.10;99.90;;;;;;4997615;28;20254;-82
2022/04/15 04:52:42;;;;;;;29.50;14.67;;;7.10;99.90;;;;;;5008015;28;20515;-83
2022/04/15 04:55:09;;;;;;;27.57;13.93;;;7.10;99.90;;;;;;5001413;28;20234;-83
2022/04/15 04:57:38;;;;;;;25.93;13.40;;;7.00;99.90;;;;;;5000560;28;20294;-82
2022/04/15 05:00:07;;;;;;;26.00;12.17;;;7.00;99.90;;;;;;4997040;28;20207;-82
2022/04/15 05:02:33;;;;;;;27.47;13.30;;;7.00;99.90;;;;;;5005525;28;20209;-83
2022/04/15 05:05:00;;;;;;;26.07;13.10;;;7.10;99.90;;;;;;5006174;28;20291;-82
2022/04/15 05:07:28;;;;;;;26.67;13.07;;;7.00;99.90;;;;;;5006655;28;21069;-85
2022/04/15 05:09:55;;;;;;;26.57;12.90;;;7.00;99.90;;;;;;4999369;28;20300;-82
2022/04/15 05:12:22;;;;;;;26.60;12.73;;;7.00;99.90;;;;;;4998123;28;20250;-82
2022/04/15 05:14:49;;;;;;;24.50;12.77;;;7.10;99.90;;;;;;5003223;28;20303;-82
2022/04/15 05:17:16;;;;;;;25.03;11.70;;;7.10;99.90;;;;;;5004824;28;20230;-83
2022/04/15 05:19:44;;;;;;;28.00;13.20;;;7.10;99.90;;;;;;5004130;28;20597;-83
2022/04/15 05:22:12;;;;;;;25.47;12.17;;;7.10;99.90;;;;;;5006909;28;20774;-84
2022/04/15 05:24:39;;;;;;;27.63;12.27;;;7.20;99.90;;;;;;5003727;28;20209;-83
2022/04/15 05:27:07;;;;;;;28.33;12.07;;;7.20;99.90;;;;;;5002911;28;20249;-82
2022/04/15 05:29:34;;;;;;;22.50;11.37;;;7.20;99.90;;;;;;5001104;28;20741;-82
2022/04/15 05:32:02;;;;;;;25.43;12.83;;;7.20;99.90;;;;;;5000751;28;20244;-83
2022/04/15 05:34:29;;;;;;;27.17;13.63;;;7.30;99.90;;;;;;5011061;28;20306;-82
2022/04/15 05:36:56;;;;;;;30.20;12.80;;;7.30;99.90;;;;;;5000949;28;20222;-82
2022/04/15 05:39:23;;;;;;;30.70;12.70;;;7.40;99.90;;;;;;4984904;28;20245;-82
2022/04/15 05:41:49;;;;;;;26.50;12.03;;;7.40;99.90;;;;;;4990690;28;20229;-82
2022/04/15 05:44:16;;;;;;;25.50;12.13;;;7.40;99.90;;;;;;5002134;28;20558;-82
2022/04/15 05:46:43;;;;;;;26.70;12.47;;;7.40;99.90;;;;;;4995053;28;20245;-83
2022/04/15 05:49:14;;;;;;;25.47;12.83;;;7.40;99.90;;;;;;4995305;28;20235;-81
2022/04/15 05:51:42;;;;;;;30.03;13.20;;;7.50;99.90;;;;;;4995139;28;20690;-84
2022/04/15 05:54:09;;;;;;;23.20;11.63;;;7.60;99.90;;;;;;4993536;28;20235;-82
2022/04/15 05:56:37;;;;;;;23.50;11.17;;;7.60;99.90;;;;;;4997756;28;20979;-82
2022/04/15 05:59:04;;;;;;;21.57;10.37;;;7.70;99.90;;;;;;5003456;28;20202;-83
2022/04/15 06:01:36;;;;;;;19.73;11.17;;;7.70;99.90;;;;;;5008666;28;20627;-83
2022/04/15 06:04:04;;;;;;;21.73;10.00;;;7.80;99.90;;;;;;4997683;28;20208;-83
2022/04/15 06:06:31;;;;;;;19.23;10.30;;;7.90;99.90;;;;;;5004813;28;20224;-83
2022/04/15 06:08:57;;;;;;;18.03;9.53;;;8.00;99.90;;;;;;5005589;28;20748;-84
2022/04/15 06:11:25;;;;;;;21.90;9.90;;;8.00;99.90;;;;;;5004674;28;20291;-84
2022/04/15 06:13:52;;;;;;;12.97;8.40;;;8.10;99.90;;;;;;5000844;28;20338;-83
2022/04/15 06:16:20;;;;;;;15.80;9.10;;;8.20;99.90;;;;;;4998071;28;20236;-84
2022/04/15 06:18:47;;;;;;;15.27;8.90;;;8.20;99.90;;;;;;4994996;28;20237;-83
2022/04/15 06:21:34;;;;;;;16.37;8.13;;;8.30;99.90;;;;;;4995260;28;20225;-84
2022/04/15 06:24:01;;;;;;;13.73;8.27;;;8.30;99.90;;;;;;5001064;28;21085;-86
2022/04/15 06:26:28;;;;;;;18.10;9.90;;;8.40;99.90;;;;;;4997430;28;20589;-83
2022/04/15 06:28:55;;;;;;;14.87;8.73;;;8.40;99.90;;;;;;5001357;28;20326;-82
2022/04/15 06:31:24;;;;;;;15.00;8.40;;;8.60;99.90;;;;;;4998990;28;20213;-83
2022/04/15 06:33:52;;;;;;;15.50;8.40;;;8.60;99.90;;;;;;4996004;28;20237;-83
2022/04/15 06:36:21;;;;;;;15.20;8.43;;;8.70;99.90;;;;;;5009601;28;20206;-82
2022/04/15 06:38:48;;;;;;;13.33;8.23;;;8.70;99.90;;;;;;4991232;28;20301;-83
2022/04/15 06:41:15;;;;;;;10.73;7.10;;;8.80;99.90;;;;;;4996902;28;20644;-82
2022/04/15 06:43:42;;;;;;;12.37;8.43;;;8.80;99.90;;;;;;5002490;28;20212;-83
2022/04/15 06:46:09;;;;;;;11.00;7.30;;;8.90;99.90;;;;;;4993494;28;20554;-83
2022/04/15 06:48:36;;;;;;;11.07;7.17;;;8.90;99.90;;;;;;4997902;28;20333;-84
2022/04/15 06:51:04;;;;;;;11.50;7.40;;;8.90;99.90;;;;;;5005495;28;21042;-83
2022/04/15 06:53:31;;;;;;;13.10;7.50;;;9.00;99.90;;;;;;5002601;28;20266;-85
2022/04/15 06:55:58;;;;;;;13.10;7.30;;;9.10;99.90;;;;;;4999278;28;20283;-83
2022/04/15 06:58:25;;;;;;;12.60;7.13;;;9.20;99.90;;;;;;4994836;28;20248;-81
2022/04/15 07:00:52;;;;;;;10.93;6.93;;;9.20;99.90;;;;;;4997827;28;20250;-82
2022/04/15 07:03:20;;;;;;;10.83;7.00;;;9.30;99.90;;;;;;4998702;28;20219;-83
2022/04/15 07:05:47;;;;;;;12.37;6.90;;;9.40;99.90;;;;;;4999762;28;20307;-81
2022/04/15 07:08:14;;;;;;;9.93;6.50;;;9.40;99.90;;;;;;4995907;28;20410;-84
2022/04/15 07:10:41;;;;;;;10.73;6.83;;;9.50;99.90;;;;;;4991322;28;20742;-82
2022/04/15 07:13:08;;;;;;;12.93;6.37;;;9.50;99.90;;;;;;4999680;28;20329;-85
2022/04/15 07:15:35;;;;;;;9.97;6.70;;;9.60;99.90;;;;;;4999265;28;20341;-82
2022/04/15 07:18:03;;;;;;;10.60;6.30;;;9.60;99.90;;;;;;4997805;28;20257;-84
2022/04/15 07:20:31;;;;;;;9.40;6.30;;;9.70;99.90;;;;;;4993683;28;20219;-85
2022/04/15 07:22:59;;;;;;;10.93;7.10;;;9.70;99.90;;;;;;4997795;28;20318;-83
2022/04/15 07:25:26;;;;;;;10.27;6.30;;;9.70;99.90;;;;;;5001716;28;20234;-82
2022/04/15 07:27:53;;;;;;;8.30;6.03;;;9.70;99.90;;;;;;4991289;28;20261;-84
2022/04/15 07:30:20;;;;;;;14.83;6.67;;;9.80;99.90;;;;;;4994737;28;20733;-84
2022/04/15 07:32:47;;;;;;;11.67;6.90;;;9.80;99.90;;;;;;5007372;28;20221;-82
2022/04/15 07:35:14;;;;;;;10.83;6.97;;;9.90;99.90;;;;;;4997654;28;20264;-83
2022/04/15 07:37:40;;;;;;;12.20;7.57;;;9.90;99.90;;;;;;4995900;28;20721;-83
2022/04/15 07:40:08;;;;;;;9.70;7.03;;;9.90;99.90;;;;;;5000178;28;20242;-83
2022/04/15 07:42:35;;;;;;;11.13;6.93;;;10.00;99.90;;;;;;5002784;28;20234;-83
2022/04/15 07:45:01;;;;;;;12.07;6.90;;;10.00;99.90;;;;;;4993671;28;20266;-83
2022/04/15 07:47:28;;;;;;;9.87;6.73;;;10.00;99.90;;;;;;4990877;28;20241;-84
2022/04/15 07:50:15;;;;;;;13.13;6.80;;;10.10;99.90;;;;;;4995332;28;20350;-82
2022/04/15 07:52:42;;;;;;;8.67;6.37;;;10.20;99.90;;;;;;4997097;28;20640;-83
2022/04/15 07:55:11;;;;;;;12.90;7.43;;;10.20;99.90;;;;;;4992918;28;20251;-85
2022/04/15 07:57:38;;;;;;;11.00;7.50;;;10.30;99.90;;;;;;4995745;28;20662;-84
2022/04/15 08:00:05;;;;;;;12.20;7.07;;;10.30;99.90;;;;;;5008292;28;20668;-83
2022/04/15 08:02:32;;;;;;;11.23;6.33;;;10.30;99.90;;;;;;5004099;28;20248;-83
2022/04/15 08:04:59;;;;;;;13.50;6.90;;;10.30;99.90;;;;;;5002003;28;20231;-82
2022/04/15 08:07:26;;;;;;;10.90;6.97;;;10.30;99.90;;;;;;5000678;28;20312;-84
2022/04/15 08:09:53;;;;;;;9.77;6.97;;;10.40;99.90;;;;;;4995270;28;20247;-84
2022/04/15 08:12:19;;;;;;;13.23;7.93;;;10.40;99.90;;;;;;5004321;28;20235;-84
2022/04/15 08:14:46;;;;;;;12.23;7.13;;;10.40;99.90;;;;;;5007818;28;20227;-84
2022/04/15 08:17:13;;;;;;;10.57;7.70;;;10.40;99.90;;;;;;5001170;28;20496;-82
2022/04/15 08:19:40;;;;;;;10.77;7.30;;;10.40;99.90;;;;;;5009323;28;20271;-84
2022/04/15 08:22:09;;;;;;;11.43;7.60;;;10.40;99.90;;;;;;5001862;28;20219;-84
2022/04/15 08:24:42;;;;;;;11.37;7.57;;;10.40;99.90;;;;;;5003687;28;20310;-83
2022/04/15 08:27:09;;;;;;;11.37;7.50;;;10.40;99.90;;;;;;4998515;28;20205;-84
2022/04/15 08:29:38;;;;;;;12.77;7.47;;;10.40;99.90;;;;;;4994886;28;20208;-84
2022/04/15 08:32:09;;;;;;;15.00;6.80;;;10.40;99.90;;;;;;4997303;28;20212;-85
2022/04/15 08:34:36;;;;;;;11.63;7.30;;;10.50;99.90;;;;;;4997214;28;20247;-84
2022/04/15 08:37:04;;;;;;;14.87;7.57;;;10.50;99.90;;;;;;5000871;28;20255;-84
2022/04/15 08:39:31;;;;;;;13.07;7.37;;;10.50;99.90;;;;;;4996886;28;20298;-84
2022/04/15 08:41:58;;;;;;;11.17;7.30;;;10.50;99.90;;;;;;5006253;28;20210;-84
2022/04/15 08:44:25;;;;;;;13.70;7.80;;;10.50;99.90;;;;;;5000807;28;20314;-83
2022/04/15 08:46:52;;;;;;;10.50;7.27;;;10.50;99.90;;;;;;5010436;28;20305;-86
2022/04/15 08:49:19;;;;;;;10.63;7.43;;;10.50;99.90;;;;;;5003369;28;20213;-85
2022/04/15 08:51:50;;;;;;;12.30;7.97;;;10.50;99.90;;;;;;5005748;28;20242;-83
2022/04/15 08:54:20;;;;;;;11.23;8.00;;;10.60;99.90;;;;;;4998196;28;20272;-83
2022/04/15 08:56:48;;;;;;;12.07;7.73;;;10.70;99.90;;;;;;5002931;28;20204;-83
2022/04/15 08:59:15;;;;;;;13.20;7.53;;;10.70;99.90;;;;;;5000792;28;20656;-81
2022/04/15 09:01:43;;;;;;;14.10;7.50;;;10.70;99.90;;;;;;5003558;28;20265;-83
2022/04/15 09:04:11;;;;;;;11.53;7.10;;;10.70;99.90;;;;;;4996636;28;20272;-85
2022/04/15 09:06:41;;;;;;;9.53;6.43;;;10.70;99.90;;;;;;5000307;28;20602;-85
2022/04/15 09:09:12;;;;;;;12.53;6.87;;;10.90;99.90;;;;;;5008060;28;20200;-82
2022/04/15 09:11:48;;;;;;;10.30;6.70;;;10.80;99.90;;;;;;5002994;28;20205;-82
2022/04/15 09:14:16;;;;;;;12.03;6.93;;;10.90;99.90;;;;;;5004972;28;20281;-83
2022/04/15 09:16:45;;;;;;;9.53;7.20;;;10.90;99.90;;;;;;5006280;28;20279;-81
2022/04/15 09:19:16;;;;;;;11.40;6.73;;;11.00;99.90;;;;;;5004736;28;20232;-81
2022/04/15 09:21:52;;;;;;;11.30;7.07;;;11.10;99.90;;;;;;5003171;28;20619;-82
2022/04/15 09:24:33;;;;;;;10.00;6.80;;;11.10;99.90;;;;;;4998448;28;20293;-83
2022/04/15 09:27:06;;;;;;;9.27;6.87;;;11.10;99.90;;;;;;4996854;28;20332;-81
2022/04/15 09:29:34;;;;;;;10.23;6.60;;;11.20;99.90;;;;;;5003184;28;20205;-84
2022/04/15 09:32:14;;;;;;;12.67;7.17;;;11.30;99.90;;;;;;5003845;28;20210;-82
2022/04/15 09:35:04;;;;;;;10.97;6.73;;;11.30;99.90;;;;;;5007111;28;20356;-82
2022/04/15 09:37:43;;;;;;;10.20;6.67;;;11.40;99.90;;;;;;5000150;28;20237;-83
2022/04/15 09:40:25;;;;;;;10.23;6.80;;;11.50;99.90;;;;;;4998690;28;20608;-83
2022/04/15 09:42:55;;;;;;;10.63;6.73;;;11.40;99.90;;;;;;5001118;28;20258;-84
2022/04/15 09:45:27;;;;;;;11.63;6.83;;;11.40;99.90;;;;;;5009198;28;20233;-84
2022/04/15 09:47:59;;;;;;;13.33;7.57;;;11.40;99.90;;;;;;5017567;28;20250;-84
2022/04/15 09:50:34;;;;;;;9.30;6.97;;;11.40;99.90;;;;;;5003648;28;20205;-82
2022/04/15 09:53:08;;;;;;;8.53;6.77;;;11.50;99.90;;;;;;5000271;28;20877;-83
2022/04/15 09:55:36;;;;;;;9.80;7.10;;;11.50;99.90;;;;;;5004780;28;20720;-82
2022/04/15 09:58:08;;;;;;;12.43;7.63;;;11.50;99.90;;;;;;5000741;28;20313;-84
2022/04/15 10:00:36;;;;;;;11.83;7.57;;;11.50;99.90;;;;;;5000705;28;20356;-83
2022/04/15 10:03:11;;;;;;;10.80;7.30;;;11.40;99.90;;;;;;5001117;28;20197;-83
2022/04/15 10:05:38;;;;;;;10.10;7.37;;;11.40;99.90;;;;;;4993650;28;20213;-84
2022/04/15 10:08:07;;;;;;;10.63;7.27;;;11.30;99.90;;;;;;5001556;28;20276;-82
2022/04/15 10:10:34;;;;;;;11.50;7.17;;;11.30;99.90;;;;;;5002217;28;20301;-84
2022/04/15 10:13:06;;;;;;;11.00;7.47;;;11.30;99.90;;;;;;4997334;28;20671;-83
2022/04/15 10:15:38;;;;;;;9.43;7.20;;;11.30;99.90;;;;;;5002461;28;20236;-88
2022/04/15 10:18:06;;;;;;;11.93;6.73;;;11.30;99.90;;;;;;5005425;28;20242;-87
2022/04/15 10:20:33;;;;;;;8.93;6.53;;;11.30;99.90;;;;;;5001695;28;20259;-87
2022/04/15 10:23:02;;;;;;;9.47;6.90;;;11.30;99.90;;;;;;5000632;28;20311;-87
2022/04/15 10:25:31;;;;;;;10.57;7.87;;;11.40;99.90;;;;;;5016007;28;20325;-86
2022/04/15 10:28:10;;;;;;;11.17;7.30;;;11.40;99.90;;;;;;5001356;28;20639;-86
2022/04/15 10:30:44;;;;;;;11.17;6.70;;;11.50;99.90;;;;;;4998379;28;20229;-86
2022/04/15 10:33:27;;;;;;;10.80;7.13;;;11.50;99.90;;;;;;5001966;28;20666;-86
2022/04/15 10:36:09;;;;;;;8.63;6.77;;;11.60;99.90;;;;;;4998562;28;20241;-89
2022/04/15 10:38:36;;;;;;;10.50;6.70;;;11.70;99.90;;;;;;4998728;28;20219;-86
2022/04/15 10:41:16;;;;;;;11.80;7.10;;;11.70;99.90;;;;;;4994917;28;20227;-86
2022/04/15 10:43:57;;;;;;;9.00;6.70;;;11.80;99.90;;;;;;5000921;28;20274;-86
2022/04/15 10:46:37;;;;;;;9.67;6.83;;;11.90;99.90;;;;;;5010081;28;20827;-86
2022/04/15 10:49:24;;;;;;;10.23;7.17;;;11.90;99.90;;;;;;4995562;28;20203;-87
2022/04/15 10:51:59;;;;;;;8.00;6.93;;;11.90;99.90;;;;;;4997433;28;20229;-87
2022/04/15 10:54:50;;;;;;;10.80;7.27;;;12.00;99.90;;;;;;4996643;28;20275;-88
2022/04/15 10:57:40;;;;;;;9.67;6.47;;;12.10;99.90;;;;;;5001942;28;20199;-84
2022/04/15 11:03:18;;;;;;;9.10;6.10;;;12.30;99.90;;;;;;5000065;28;20289;-81
2022/04/15 11:05:46;;;;;;;8.90;5.93;;;12.40;99.90;;;;;;4998452;28;20205;-86
2022/04/15 11:08:28;;;;;;;7.43;5.60;;;12.50;99.90;;;;;;4995685;28;20214;-86
2022/04/15 11:14:38;;;;;;;9.20;5.63;;;12.70;99.90;;;;;;5004249;28;20265;-86
2022/04/15 11:17:09;;;;;;;8.30;5.57;;;12.80;99.90;;;;;;5004630;28;20199;-89
2022/04/15 11:19:39;;;;;;;6.73;5.90;;;12.90;99.90;;;;;;5003106;28;20939;-86
2022/04/15 11:22:08;;;;;;;7.37;5.80;;;12.90;99.90;;;;;;5001111;28;20274;-83
2022/04/15 11:24:38;;;;;;;7.43;6.00;;;12.90;99.90;;;;;;5000573;28;20242;-89
2022/04/15 11:27:18;;;;;;;11.57;6.40;;;13.00;99.90;;;;;;4993071;28;20203;-88
2022/04/15 11:29:50;;;;;;;8.17;5.53;;;13.00;99.90;;;;;;5001273;28;20202;-88
2022/04/15 11:32:17;;;;;;;6.50;5.27;;;13.00;99.90;;;;;;5005811;28;20195;-85
2022/04/15 11:34:52;;;;;;;6.30;5.00;;;13.00;99.90;;;;;;5005446;28;20317;-88
2022/04/15 11:37:22;;;;;;;5.93;5.33;;;13.10;99.90;;;;;;5009098;28;20215;-87
2022/04/15 11:39:49;;;;;;;8.10;5.17;;;13.20;99.90;;;;;;5018939;28;20206;-84
2022/04/15 11:42:17;;;;;;;7.30;5.20;;;13.20;99.90;;;;;;5005543;28;20686;-85
2022/04/15 11:44:44;;;;;;;9.73;5.23;;;13.20;99.90;;;;;;5005565;28;20277;-88
2022/04/15 11:47:18;;;;;;;8.10;5.53;;;13.40;99.90;;;;;;5004185;28;20293;-84
2022/04/15 11:49:49;;;;;;;6.27;4.83;;;13.60;99.90;;;;;;5003991;28;20263;-87
2022/04/15 11:52:28;;;;;;;5.40;4.87;;;13.60;99.90;;;;;;5021019;28;20657;-87
2022/04/15 11:54:58;;;;;;;5.97;4.97;;;13.60;99.90;;;;;;5010607;28;20225;-88
2022/04/15 11:57:29;;;;;;;6.60;4.67;;;13.50;99.90;;;;;;5005240;28;20584;-90
2022/04/15 11:59:56;;;;;;;6.17;4.47;;;13.50;99.90;;;;;;5006783;28;20382;-87
2022/04/15 12:02:25;;;;;;;7.03;5.13;;;13.60;99.90;;;;;;5011223;28;20260;-88
2022/04/15 12:04:59;;;;;;;6.20;5.13;;;13.60;99.90;;;;;;5014445;28;20194;-88
2022/04/15 12:07:29;;;;;;;5.67;5.07;;;13.70;99.90;;;;;;5008348;28;20272;-84
2022/04/15 12:09:56;;;;;;;5.83;4.63;;;13.60;99.90;;;;;;5005955;28;20213;-84
2022/04/15 12:12:24;;;;;;;7.67;4.80;;;13.60;99.90;;;;;;5003011;28;20206;-86
2022/04/15 12:14:53;;;;;;;6.97;4.80;;;13.70;99.90;;;;;;5008864;28;21166;-84
2022/04/15 12:17:22;;;;;;;6.27;4.60;;;13.80;99.90;;;;;;5003095;28;20303;-87
2022/04/15 12:19:50;;;;;;;5.20;4.70;;;14.00;99.90;;;;;;5001440;28;20344;-87
2022/04/15 12:22:17;;;;;;;5.87;4.70;;;14.00;99.90;;;;;;5006083;28;20890;-79
2022/04/15 12:24:43;;;;;;;6.70;4.90;;;14.70;99.90;;;;;;4998350;28;20294;-80
2022/04/15 12:27:18;;;;;;;6.97;4.70;;;14.10;99.90;;;;;;5002536;28;20305;-81
2022/04/15 12:29:48;;;;;;;6.07;4.60;;;13.90;99.90;;;;;;5000113;28;20292;-82
2022/04/15 12:32:22;;;;;;;5.33;4.03;;;13.90;99.90;;;;;;5005932;28;20546;-86
2022/04/15 12:34:55;;;;;;;5.97;4.20;;;13.90;99.90;;;;;;5019736;28;20246;-92
2022/04/15 12:37:36;;;;;;;6.07;3.90;;;13.90;99.90;;;;;;5013889;28;20225;-91
2022/04/15 12:40:08;;;;;;;5.43;4.30;;;14.00;99.90;;;;;;5007325;28;20230;-87
2022/04/15 12:42:37;;;;;;;6.67;4.30;;;14.10;99.90;;;;;;5007878;28;20217;-90
2022/04/15 12:45:16;;;;;;;4.80;4.30;;;14.10;99.90;;;;;;5005946;28;20212;-85
2022/04/15 12:47:57;;;;;;;4.50;4.10;;;14.20;99.90;;;;;;5002967;28;20271;-87
2022/04/15 12:50:30;;;;;;;5.47;4.67;;;14.10;99.90;;;;;;5016783;28;20198;-86
2022/04/15 12:52:58;;;;;;;6.70;4.80;;;14.10;99.90;;;;;;5008489;28;20623;-88
2022/04/15 12:55:32;;;;;;;9.23;4.70;;;14.10;99.90;;;;;;5008208;28;20228;-88